sensor_id;sensor_type;location;lat;lon;timestamp;P1;durP1;ratioP1;P2;durP2;ratioP2
13785;SDS011;47474;48.824;9.384;2023-05-01T00:00:03;7.27;;;6.10;;
13785;SDS011;47474;48.824;9.384;2023-05-01T00:02:45;7.23;;;5.50;;
13785;SDS011;47474;48.824;9.384;2023-05-01T00:05:19;5.63;;;5.03;;
13785;SDS011;47474;48.824;9.384;2023-05-01T00:08:05;6.50;;;5.83;;
13785;SDS011;47474;48.824;9.384;2023-05-01T00:10:42;6.90;;;6.23;;
13785;SDS011;47474;48.824;9.384;2023-05-01T00:13:21;7.17;;;5.67;;
13785;SDS011;47474;48.824;9.384;2023-05-01T00:15:57;5.63;;;5.00;;
13785;SDS011;47474;48.824;9.384;2023-05-01T00:18:38;6.17;;;5.57;;
13785;SDS011;47474;48.824;9.384;2023-05-01T00:21:05;6.07;;;5.47;;
13785;SDS011;47474;48.824;9.384;2023-05-01T00:23:32;6.17;;;5.50;;
13785;SDS011;47474;48.824;9.384;2023-05-01T00:26:08;7.30;;;5.60;;
13785;SDS011;47474;48.824;9.384;2023-05-01T00:28:51;6.87;;;6.07;;
13785;SDS011;47474;48.824;9.384;2023-05-01T00:31:28;6.93;;;6.00;;
13785;SDS011;47474;48.824;9.384;2023-05-01T00:33:56;5.80;;;5.23;;
13785;SDS011;47474;48.824;9.384;2023-05-01T00:36:24;6.27;;;5.60;;
13785;SDS011;47474;48.824;9.384;2023-05-01T00:38:57;8.47;;;5.83;;
13785;SDS011;47474;48.824;9.384;2023-05-01T00:41:31;6.00;;;5.47;;
13785;SDS011;47474;48.824;9.384;2023-05-01T00:44:03;5.83;;;5.33;;
13785;SDS011;47474;48.824;9.384;2023-05-01T00:46:30;6.83;;;5.20;;
13785;SDS011;47474;48.824;9.384;2023-05-01T00:48:59;5.67;;;5.17;;
13785;SDS011;47474;48.824;9.384;2023-05-01T00:51:32;6.40;;;5.23;;
13785;SDS011;47474;48.824;9.384;2023-05-01T00:53:59;6.37;;;5.30;;
13785;SDS011;47474;48.824;9.384;2023-05-01T00:56:27;6.33;;;5.50;;
13785;SDS011;47474;48.824;9.384;2023-05-01T00:58:55;6.00;;;5.33;;
13785;SDS011;47474;48.824;9.384;2023-05-01T01:01:24;7.97;;;5.57;;
13785;SDS011;47474;48.824;9.384;2023-05-01T01:03:54;6.20;;;5.60;;
13785;SDS011;47474;48.824;9.384;2023-05-01T01:06:23;6.53;;;5.70;;
13785;SDS011;47474;48.824;9.384;2023-05-01T01:09:25;7.60;;;5.63;;
13785;SDS011;47474;48.824;9.384;2023-05-01T01:11:59;7.57;;;5.70;;
13785;SDS011;47474;48.824;9.384;2023-05-01T01:14:35;6.57;;;5.73;;
13785;SDS011;47474;48.824;9.384;2023-05-01T01:17:08;6.40;;;5.80;;
13785;SDS011;47474;48.824;9.384;2023-05-01T01:22:57;6.10;;;5.50;;
13785;SDS011;47474;48.824;9.384;2023-05-01T01:25:49;8.23;;;5.40;;
13785;SDS011;47474;48.824;9.384;2023-05-01T01:28:39;5.87;;;5.27;;
13785;SDS011;47474;48.824;9.384;2023-05-01T01:31:31;5.93;;;5.30;;
13785;SDS011;47474;48.824;9.384;2023-05-01T01:34:02;6.00;;;5.40;;
13785;SDS011;47474;48.824;9.384;2023-05-01T01:36:39;6.27;;;5.50;;
13785;SDS011;47474;48.824;9.384;2023-05-01T01:39:13;6.67;;;6.07;;
13785;SDS011;47474;48.824;9.384;2023-05-01T01:41:52;7.50;;;5.37;;
13785;SDS011;47474;48.824;9.384;2023-05-01T01:44:39;6.73;;;6.00;;
13785;SDS011;47474;48.824;9.384;2023-05-01T01:47:10;5.90;;;5.30;;
13785;SDS011;47474;48.824;9.384;2023-05-01T01:49:48;6.40;;;5.67;;
13785;SDS011;47474;48.824;9.384;2023-05-01T01:52:25;6.73;;;6.03;;
13785;SDS011;47474;48.824;9.384;2023-05-01T01:55:12;5.90;;;5.30;;
13785;SDS011;47474;48.824;9.384;2023-05-01T01:57:57;5.97;;;5.37;;
13785;SDS011;47474;48.824;9.384;2023-05-01T02:00:53;7.83;;;5.77;;
13785;SDS011;47474;48.824;9.384;2023-05-01T02:03:37;6.90;;;5.93;;
13785;SDS011;47474;48.824;9.384;2023-05-01T02:06:05;5.80;;;5.30;;
13785;SDS011;47474;48.824;9.384;2023-05-01T02:08:32;7.20;;;5.57;;
13785;SDS011;47474;48.824;9.384;2023-05-01T02:10:59;7.07;;;5.60;;
13785;SDS011;47474;48.824;9.384;2023-05-01T02:13:29;6.50;;;5.90;;
13785;SDS011;47474;48.824;9.384;2023-05-01T02:15:57;7.10;;;5.43;;
13785;SDS011;47474;48.824;9.384;2023-05-01T02:18:25;5.93;;;5.33;;
13785;SDS011;47474;48.824;9.384;2023-05-01T02:21:09;6.53;;;5.73;;
13785;SDS011;47474;48.824;9.384;2023-05-01T02:24:00;6.97;;;5.80;;
13785;SDS011;47474;48.824;9.384;2023-05-01T02:26:53;7.37;;;6.03;;
13785;SDS011;47474;48.824;9.384;2023-05-01T02:29:29;5.83;;;5.33;;
13785;SDS011;47474;48.824;9.384;2023-05-01T02:32:09;7.03;;;5.60;;
13785;SDS011;47474;48.824;9.384;2023-05-01T02:37:51;6.20;;;5.60;;
13785;SDS011;47474;48.824;9.384;2023-05-01T02:40:43;6.57;;;5.20;;
13785;SDS011;47474;48.824;9.384;2023-05-01T02:43:20;5.93;;;5.33;;
13785;SDS011;47474;48.824;9.384;2023-05-01T02:46:06;6.00;;;5.47;;
13785;SDS011;47474;48.824;9.384;2023-05-01T02:48:57;6.03;;;5.37;;
13785;SDS011;47474;48.824;9.384;2023-05-01T02:51:36;6.20;;;5.10;;
13785;SDS011;47474;48.824;9.384;2023-05-01T02:54:25;7.67;;;5.80;;
13785;SDS011;47474;48.824;9.384;2023-05-01T02:57:20;5.80;;;4.93;;
13785;SDS011;47474;48.824;9.384;2023-05-01T03:00:00;5.70;;;5.10;;
13785;SDS011;47474;48.824;9.384;2023-05-01T03:02:44;6.17;;;5.57;;
13785;SDS011;47474;48.824;9.384;2023-05-01T03:05:30;6.20;;;5.60;;
13785;SDS011;47474;48.824;9.384;2023-05-01T03:08:12;7.60;;;5.73;;
13785;SDS011;47474;48.824;9.384;2023-05-01T03:11:00;6.03;;;5.43;;
13785;SDS011;47474;48.824;9.384;2023-05-01T03:13:42;7.13;;;6.03;;
13785;SDS011;47474;48.824;9.384;2023-05-01T03:16:24;7.23;;;5.80;;
13785;SDS011;47474;48.824;9.384;2023-05-01T03:19:16;6.40;;;5.77;;
13785;SDS011;47474;48.824;9.384;2023-05-01T03:21:58;6.23;;;5.63;;
13785;SDS011;47474;48.824;9.384;2023-05-01T03:24:46;6.00;;;5.40;;
13785;SDS011;47474;48.824;9.384;2023-05-01T03:27:23;6.50;;;5.60;;
13785;SDS011;47474;48.824;9.384;2023-05-01T03:30:08;6.37;;;5.77;;
13785;SDS011;47474;48.824;9.384;2023-05-01T03:32:51;7.37;;;5.53;;
13785;SDS011;47474;48.824;9.384;2023-05-01T03:35:57;6.77;;;6.07;;
13785;SDS011;47474;48.824;9.384;2023-05-01T03:38:33;7.27;;;5.70;;
13785;SDS011;47474;48.824;9.384;2023-05-01T03:41:01;6.50;;;5.90;;
13785;SDS011;47474;48.824;9.384;2023-05-01T03:43:41;8.33;;;5.73;;
13785;SDS011;47474;48.824;9.384;2023-05-01T03:46:33;6.50;;;5.77;;
13785;SDS011;47474;48.824;9.384;2023-05-01T03:49:19;6.83;;;5.90;;
13785;SDS011;47474;48.824;9.384;2023-05-01T03:51:54;6.67;;;5.60;;
13785;SDS011;47474;48.824;9.384;2023-05-01T03:54:39;6.73;;;5.83;;
13785;SDS011;47474;48.824;9.384;2023-05-01T03:57:21;6.40;;;5.80;;
13785;SDS011;47474;48.824;9.384;2023-05-01T04:00:03;6.30;;;5.70;;
13785;SDS011;47474;48.824;9.384;2023-05-01T04:02:47;7.20;;;6.50;;
13785;SDS011;47474;48.824;9.384;2023-05-01T04:05:36;7.33;;;6.10;;
13785;SDS011;47474;48.824;9.384;2023-05-01T04:08:25;6.87;;;5.63;;
13785;SDS011;47474;48.824;9.384;2023-05-01T04:11:19;7.03;;;6.33;;
13785;SDS011;47474;48.824;9.384;2023-05-01T04:13:53;6.50;;;5.90;;
13785;SDS011;47474;48.824;9.384;2023-05-01T04:16:38;7.27;;;6.30;;
13785;SDS011;47474;48.824;9.384;2023-05-01T04:19:04;6.43;;;5.83;;
13785;SDS011;47474;48.824;9.384;2023-05-01T04:21:31;8.60;;;6.10;;
13785;SDS011;47474;48.824;9.384;2023-05-01T04:23:57;8.03;;;6.63;;
13785;SDS011;47474;48.824;9.384;2023-05-01T04:26:24;10.03;;;7.10;;
13785;SDS011;47474;48.824;9.384;2023-05-01T04:28:50;7.53;;;6.83;;
13785;SDS011;47474;48.824;9.384;2023-05-01T04:31:17;7.20;;;6.50;;
13785;SDS011;47474;48.824;9.384;2023-05-01T04:33:45;7.53;;;6.27;;
13785;SDS011;47474;48.824;9.384;2023-05-01T04:36:12;7.10;;;5.80;;
13785;SDS011;47474;48.824;9.384;2023-05-01T04:38:38;7.87;;;6.20;;
13785;SDS011;47474;48.824;9.384;2023-05-01T04:41:05;5.93;;;5.33;;
13785;SDS011;47474;48.824;9.384;2023-05-01T04:43:31;7.77;;;5.77;;
13785;SDS011;47474;48.824;9.384;2023-05-01T04:45:58;6.70;;;6.00;;
13785;SDS011;47474;48.824;9.384;2023-05-01T04:48:24;7.53;;;6.27;;
13785;SDS011;47474;48.824;9.384;2023-05-01T04:50:52;7.47;;;5.97;;
13785;SDS011;47474;48.824;9.384;2023-05-01T04:53:20;6.10;;;5.50;;
13785;SDS011;47474;48.824;9.384;2023-05-01T04:55:46;6.20;;;5.60;;
13785;SDS011;47474;48.824;9.384;2023-05-01T04:58:13;7.80;;;5.70;;
13785;SDS011;47474;48.824;9.384;2023-05-01T05:00:39;8.37;;;6.13;;
13785;SDS011;47474;48.824;9.384;2023-05-01T05:03:06;8.30;;;6.73;;
13785;SDS011;47474;48.824;9.384;2023-05-01T05:05:32;6.60;;;6.00;;
13785;SDS011;47474;48.824;9.384;2023-05-01T05:08:00;8.53;;;6.80;;
13785;SDS011;47474;48.824;9.384;2023-05-01T05:10:27;7.07;;;6.37;;
13785;SDS011;47474;48.824;9.384;2023-05-01T05:12:53;7.30;;;6.60;;
13785;SDS011;47474;48.824;9.384;2023-05-01T05:15:20;6.77;;;5.80;;
13785;SDS011;47474;48.824;9.384;2023-05-01T05:17:47;5.83;;;5.27;;
13785;SDS011;47474;48.824;9.384;2023-05-01T05:20:13;7.30;;;6.50;;
13785;SDS011;47474;48.824;9.384;2023-05-01T05:22:40;6.43;;;5.70;;
13785;SDS011;47474;48.824;9.384;2023-05-01T05:25:08;5.87;;;5.23;;
13785;SDS011;47474;48.824;9.384;2023-05-01T05:27:35;6.77;;;6.07;;
13785;SDS011;47474;48.824;9.384;2023-05-01T05:30:02;8.50;;;6.13;;
13785;SDS011;47474;48.824;9.384;2023-05-01T05:32:29;6.47;;;5.83;;
13785;SDS011;47474;48.824;9.384;2023-05-01T05:34:56;7.87;;;5.83;;
13785;SDS011;47474;48.824;9.384;2023-05-01T05:37:23;7.33;;;6.63;;
13785;SDS011;47474;48.824;9.384;2023-05-01T05:39:50;7.07;;;6.37;;
13785;SDS011;47474;48.824;9.384;2023-05-01T05:42:18;6.57;;;5.87;;
13785;SDS011;47474;48.824;9.384;2023-05-01T05:44:44;6.60;;;6.00;;
13785;SDS011;47474;48.824;9.384;2023-05-01T05:47:11;6.50;;;5.90;;
13785;SDS011;47474;48.824;9.384;2023-05-01T05:49:37;6.40;;;5.80;;
13785;SDS011;47474;48.824;9.384;2023-05-01T05:52:04;7.10;;;5.90;;
13785;SDS011;47474;48.824;9.384;2023-05-01T05:54:30;8.07;;;5.30;;
13785;SDS011;47474;48.824;9.384;2023-05-01T05:56:57;6.10;;;5.50;;
13785;SDS011;47474;48.824;9.384;2023-05-01T05:59:25;6.17;;;5.30;;
13785;SDS011;47474;48.824;9.384;2023-05-01T06:01:51;6.17;;;5.57;;
13785;SDS011;47474;48.824;9.384;2023-05-01T06:04:18;6.83;;;5.70;;
13785;SDS011;47474;48.824;9.384;2023-05-01T06:06:44;6.20;;;5.60;;
13785;SDS011;47474;48.824;9.384;2023-05-01T06:09:11;5.83;;;5.30;;
13785;SDS011;47474;48.824;9.384;2023-05-01T06:11:38;6.13;;;5.57;;
13785;SDS011;47474;48.824;9.384;2023-05-01T06:14:05;5.60;;;5.10;;
13785;SDS011;47474;48.824;9.384;2023-05-01T06:16:33;5.87;;;5.27;;
13785;SDS011;47474;48.824;9.384;2023-05-01T06:18:59;5.33;;;4.83;;
13785;SDS011;47474;48.824;9.384;2023-05-01T06:21:26;6.37;;;5.23;;
13785;SDS011;47474;48.824;9.384;2023-05-01T06:23:53;5.37;;;4.87;;
13785;SDS011;47474;48.824;9.384;2023-05-01T06:26:19;6.97;;;5.53;;
13785;SDS011;47474;48.824;9.384;2023-05-01T06:28:47;7.20;;;5.17;;
13785;SDS011;47474;48.824;9.384;2023-05-01T06:31:13;6.07;;;5.47;;
13785;SDS011;47474;48.824;9.384;2023-05-01T06:33:41;6.20;;;5.60;;
13785;SDS011;47474;48.824;9.384;2023-05-01T06:36:08;5.90;;;5.30;;
13785;SDS011;47474;48.824;9.384;2023-05-01T06:38:34;6.57;;;5.37;;
13785;SDS011;47474;48.824;9.384;2023-05-01T06:41:01;5.57;;;5.13;;
13785;SDS011;47474;48.824;9.384;2023-05-01T06:43:27;7.17;;;6.50;;
13785;SDS011;47474;48.824;9.384;2023-05-01T06:45:55;6.33;;;5.73;;
13785;SDS011;47474;48.824;9.384;2023-05-01T06:48:21;6.30;;;5.70;;
13785;SDS011;47474;48.824;9.384;2023-05-01T06:50:49;6.37;;;5.50;;
13785;SDS011;47474;48.824;9.384;2023-05-01T06:53:16;6.30;;;5.27;;
13785;SDS011;47474;48.824;9.384;2023-05-01T06:55:42;6.53;;;5.90;;
13785;SDS011;47474;48.824;9.384;2023-05-01T06:58:09;6.50;;;5.83;;
13785;SDS011;47474;48.824;9.384;2023-05-01T07:00:35;5.70;;;5.20;;
13785;SDS011;47474;48.824;9.384;2023-05-01T07:03:02;5.37;;;4.87;;
13785;SDS011;47474;48.824;9.384;2023-05-01T07:05:29;6.13;;;5.57;;
13785;SDS011;47474;48.824;9.384;2023-05-01T07:07:56;5.97;;;5.37;;
13785;SDS011;47474;48.824;9.384;2023-05-01T07:10:23;5.70;;;5.20;;
13785;SDS011;47474;48.824;9.384;2023-05-01T07:12:49;6.53;;;5.83;;
13785;SDS011;47474;48.824;9.384;2023-05-01T07:15:16;6.90;;;5.77;;
13785;SDS011;47474;48.824;9.384;2023-05-01T07:17:43;6.23;;;5.23;;
13785;SDS011;47474;48.824;9.384;2023-05-01T07:20:10;5.70;;;5.20;;
13785;SDS011;47474;48.824;9.384;2023-05-01T07:22:37;5.53;;;4.97;;
13785;SDS011;47474;48.824;9.384;2023-05-01T07:25:06;6.90;;;5.67;;
13785;SDS011;47474;48.824;9.384;2023-05-01T07:27:32;5.97;;;5.37;;
13785;SDS011;47474;48.824;9.384;2023-05-01T07:29:59;6.40;;;5.13;;
13785;SDS011;47474;48.824;9.384;2023-05-01T07:32:26;6.33;;;5.53;;
13785;SDS011;47474;48.824;9.384;2023-05-01T07:34:53;5.30;;;4.90;;
13785;SDS011;47474;48.824;9.384;2023-05-01T07:37:19;7.03;;;6.23;;
13785;SDS011;47474;48.824;9.384;2023-05-01T07:39:46;6.53;;;5.93;;
13785;SDS011;47474;48.824;9.384;2023-05-01T07:42:14;6.47;;;5.53;;
13785;SDS011;47474;48.824;9.384;2023-05-01T07:44:40;6.47;;;5.57;;
13785;SDS011;47474;48.824;9.384;2023-05-01T07:47:07;6.47;;;5.87;;
13785;SDS011;47474;48.824;9.384;2023-05-01T07:49:36;5.80;;;5.23;;
13785;SDS011;47474;48.824;9.384;2023-05-01T07:52:03;6.33;;;5.73;;
13785;SDS011;47474;48.824;9.384;2023-05-01T07:54:31;7.50;;;5.53;;
13785;SDS011;47474;48.824;9.384;2023-05-01T07:56:57;5.90;;;5.30;;
13785;SDS011;47474;48.824;9.384;2023-05-01T07:59:25;5.97;;;5.37;;
13785;SDS011;47474;48.824;9.384;2023-05-01T08:01:51;7.27;;;5.57;;
13785;SDS011;47474;48.824;9.384;2023-05-01T08:04:18;5.43;;;4.97;;
13785;SDS011;47474;48.824;9.384;2023-05-01T08:06:46;6.43;;;5.83;;
13785;SDS011;47474;48.824;9.384;2023-05-01T08:09:13;5.33;;;4.83;;
13785;SDS011;47474;48.824;9.384;2023-05-01T08:11:39;5.53;;;5.03;;
13785;SDS011;47474;48.824;9.384;2023-05-01T08:14:06;5.70;;;5.20;;
13785;SDS011;47474;48.824;9.384;2023-05-01T08:16:34;5.90;;;5.30;;
13785;SDS011;47474;48.824;9.384;2023-05-01T08:19:00;6.07;;;5.37;;
13785;SDS011;47474;48.824;9.384;2023-05-01T08:21:28;5.33;;;4.77;;
13785;SDS011;47474;48.824;9.384;2023-05-01T08:23:55;5.90;;;5.30;;
13785;SDS011;47474;48.824;9.384;2023-05-01T08:26:21;5.10;;;4.63;;
13785;SDS011;47474;48.824;9.384;2023-05-01T08:28:48;4.67;;;4.27;;
13785;SDS011;47474;48.824;9.384;2023-05-01T08:31:14;5.63;;;5.07;;
13785;SDS011;47474;48.824;9.384;2023-05-01T08:33:42;5.30;;;4.80;;
13785;SDS011;47474;48.824;9.384;2023-05-01T08:36:09;5.13;;;4.73;;
13785;SDS011;47474;48.824;9.384;2023-05-01T08:38:36;4.90;;;4.50;;
13785;SDS011;47474;48.824;9.384;2023-05-01T08:41:03;5.40;;;4.90;;
13785;SDS011;47474;48.824;9.384;2023-05-01T08:43:29;5.03;;;4.53;;
13785;SDS011;47474;48.824;9.384;2023-05-01T08:45:57;6.40;;;4.80;;
13785;SDS011;47474;48.824;9.384;2023-05-01T08:48:25;5.17;;;4.63;;
13785;SDS011;47474;48.824;9.384;2023-05-01T08:50:55;6.33;;;5.20;;
13785;SDS011;47474;48.824;9.384;2023-05-01T08:53:23;6.73;;;4.97;;
13785;SDS011;47474;48.824;9.384;2023-05-01T08:55:51;5.10;;;4.60;;
13785;SDS011;47474;48.824;9.384;2023-05-01T08:58:18;4.70;;;4.30;;
13785;SDS011;47474;48.824;9.384;2023-05-01T09:00:46;6.00;;;5.20;;
13785;SDS011;47474;48.824;9.384;2023-05-01T09:03:12;5.40;;;4.90;;
13785;SDS011;47474;48.824;9.384;2023-05-01T09:05:39;5.60;;;4.47;;
13785;SDS011;47474;48.824;9.384;2023-05-01T09:08:07;5.07;;;4.67;;
13785;SDS011;47474;48.824;9.384;2023-05-01T09:10:35;4.80;;;4.30;;
13785;SDS011;47474;48.824;9.384;2023-05-01T09:13:06;5.63;;;4.70;;
13785;SDS011;47474;48.824;9.384;2023-05-01T09:15:34;5.33;;;4.50;;
13785;SDS011;47474;48.824;9.384;2023-05-01T09:18:00;4.97;;;4.43;;
13785;SDS011;47474;48.824;9.384;2023-05-01T09:20:27;4.60;;;4.17;;
13785;SDS011;47474;48.824;9.384;2023-05-01T09:22:54;4.93;;;4.43;;
13785;SDS011;47474;48.824;9.384;2023-05-01T09:25:23;5.70;;;4.80;;
13785;SDS011;47474;48.824;9.384;2023-05-01T09:27:50;4.90;;;4.50;;
13785;SDS011;47474;48.824;9.384;2023-05-01T09:30:29;5.87;;;4.80;;
13785;SDS011;47474;48.824;9.384;2023-05-01T09:33:03;4.93;;;4.43;;
13785;SDS011;47474;48.824;9.384;2023-05-01T09:35:30;5.20;;;4.80;;
13785;SDS011;47474;48.824;9.384;2023-05-01T09:37:58;4.47;;;4.07;;
13785;SDS011;47474;48.824;9.384;2023-05-01T09:40:27;5.40;;;4.60;;
13785;SDS011;47474;48.824;9.384;2023-05-01T09:42:53;6.67;;;4.10;;
13785;SDS011;47474;48.824;9.384;2023-05-01T09:45:21;6.13;;;4.50;;
13785;SDS011;47474;48.824;9.384;2023-05-01T09:47:50;5.40;;;4.87;;
13785;SDS011;47474;48.824;9.384;2023-05-01T09:50:27;5.33;;;4.83;;
13785;SDS011;47474;48.824;9.384;2023-05-01T09:52:54;5.03;;;4.63;;
13785;SDS011;47474;48.824;9.384;2023-05-01T09:55:21;4.70;;;4.20;;
13785;SDS011;47474;48.824;9.384;2023-05-01T09:57:50;6.25;;;5.05;;
13785;SDS011;47474;48.824;9.384;2023-05-01T10:00:17;6.90;;;4.87;;
13785;SDS011;47474;48.824;9.384;2023-05-01T10:02:46;5.40;;;4.90;;
13785;SDS011;47474;48.824;9.384;2023-05-01T10:05:14;4.73;;;4.27;;
13785;SDS011;47474;48.824;9.384;2023-05-01T10:07:53;6.17;;;5.23;;
13785;SDS011;47474;48.824;9.384;2023-05-01T10:10:21;5.13;;;4.73;;
13785;SDS011;47474;48.824;9.384;2023-05-01T10:12:49;6.50;;;5.00;;
13785;SDS011;47474;48.824;9.384;2023-05-01T10:15:16;4.90;;;4.47;;
13785;SDS011;47474;48.824;9.384;2023-05-01T10:17:44;5.55;;;5.05;;
13785;SDS011;47474;48.824;9.384;2023-05-01T10:20:11;5.50;;;5.00;;
13785;SDS011;47474;48.824;9.384;2023-05-01T10:22:38;5.33;;;4.77;;
13785;SDS011;47474;48.824;9.384;2023-05-01T10:25:06;5.93;;;4.85;;
13785;SDS011;47474;48.824;9.384;2023-05-01T10:27:34;5.00;;;4.60;;
13785;SDS011;47474;48.824;9.384;2023-05-01T10:30:02;5.80;;;4.90;;
13785;SDS011;47474;48.824;9.384;2023-05-01T10:32:30;5.22;;;4.72;;
13785;SDS011;47474;48.824;9.384;2023-05-01T10:34:57;6.85;;;5.45;;
13785;SDS011;47474;48.824;9.384;2023-05-01T10:37:28;7.28;;;5.80;;
13785;SDS011;47474;48.824;9.384;2023-05-01T10:39:58;5.40;;;4.90;;
13785;SDS011;47474;48.824;9.384;2023-05-01T10:42:24;6.68;;;5.68;;
13785;SDS011;47474;48.824;9.384;2023-05-01T10:44:51;5.72;;;5.13;;
13785;SDS011;47474;48.824;9.384;2023-05-01T10:50:12;6.03;;;5.35;;
13785;SDS011;47474;48.824;9.384;2023-05-01T10:55:44;5.18;;;4.68;;
13785;SDS011;47474;48.824;9.384;2023-05-01T10:58:11;5.70;;;5.10;;
13785;SDS011;47474;48.824;9.384;2023-05-01T11:00:38;5.10;;;4.70;;
13785;SDS011;47474;48.824;9.384;2023-05-01T11:06:04;6.35;;;4.90;;
13785;SDS011;47474;48.824;9.384;2023-05-01T11:08:31;5.22;;;4.72;;
13785;SDS011;47474;48.824;9.384;2023-05-01T11:11:01;5.85;;;4.80;;
13785;SDS011;47474;48.824;9.384;2023-05-01T11:14:02;5.10;;;4.65;;
13785;SDS011;47474;48.824;9.384;2023-05-01T11:16:39;5.72;;;4.63;;
13785;SDS011;47474;48.824;9.384;2023-05-01T11:19:09;6.13;;;5.53;;
13785;SDS011;47474;48.824;9.384;2023-05-01T11:21:36;5.00;;;4.50;;
13785;SDS011;47474;48.824;9.384;2023-05-01T11:24:04;6.28;;;4.60;;
13785;SDS011;47474;48.824;9.384;2023-05-01T11:29:32;5.30;;;4.80;;
13785;SDS011;47474;48.824;9.384;2023-05-01T11:31:58;7.93;;;5.90;;
13785;SDS011;47474;48.824;9.384;2023-05-01T11:34:26;5.55;;;5.05;;
13785;SDS011;47474;48.824;9.384;2023-05-01T11:36:53;5.65;;;5.05;;
13785;SDS011;47474;48.824;9.384;2023-05-01T11:39:19;6.15;;;5.57;;
13785;SDS011;47474;48.824;9.384;2023-05-01T11:41:46;6.15;;;5.28;;
13785;SDS011;47474;48.824;9.384;2023-05-01T11:44:14;6.07;;;5.47;;
13785;SDS011;47474;48.824;9.384;2023-05-01T11:46:41;5.43;;;4.93;;
13785;SDS011;47474;48.824;9.384;2023-05-01T11:49:07;5.72;;;5.20;;
13785;SDS011;47474;48.824;9.384;2023-05-01T11:51:35;7.43;;;5.38;;
13785;SDS011;47474;48.824;9.384;2023-05-01T11:54:02;7.05;;;5.38;;
13785;SDS011;47474;48.824;9.384;2023-05-01T11:56:30;7.15;;;5.75;;
13785;SDS011;47474;48.824;9.384;2023-05-01T11:58:58;6.57;;;5.28;;
13785;SDS011;47474;48.824;9.384;2023-05-01T12:01:32;7.38;;;5.57;;
13785;SDS011;47474;48.824;9.384;2023-05-01T12:03:58;6.10;;;4.75;;
13785;SDS011;47474;48.824;9.384;2023-05-01T12:06:33;5.13;;;4.65;;
13785;SDS011;47474;48.824;9.384;2023-05-01T12:09:04;6.15;;;4.53;;
13785;SDS011;47474;48.824;9.384;2023-05-01T12:11:31;5.80;;;5.20;;
13785;SDS011;47474;48.824;9.384;2023-05-01T12:13:58;6.28;;;5.07;;
13785;SDS011;47474;48.824;9.384;2023-05-01T12:16:25;5.25;;;4.75;;
13785;SDS011;47474;48.824;9.384;2023-05-01T12:18:52;5.85;;;5.35;;
13785;SDS011;47474;48.824;9.384;2023-05-01T12:21:18;5.07;;;4.57;;
13785;SDS011;47474;48.824;9.384;2023-05-01T12:23:47;5.57;;;5.07;;
13785;SDS011;47474;48.824;9.384;2023-05-01T12:26:14;4.93;;;4.43;;
13785;SDS011;47474;48.824;9.384;2023-05-01T12:28:51;5.18;;;4.63;;
13785;SDS011;47474;48.824;9.384;2023-05-01T12:31:18;5.15;;;4.63;;
13785;SDS011;47474;48.824;9.384;2023-05-01T12:33:51;5.88;;;5.10;;
13785;SDS011;47474;48.824;9.384;2023-05-01T12:36:18;5.35;;;4.82;;
13785;SDS011;47474;48.824;9.384;2023-05-01T12:38:54;5.28;;;4.78;;
13785;SDS011;47474;48.824;9.384;2023-05-01T12:41:30;5.70;;;5.00;;
13785;SDS011;47474;48.824;9.384;2023-05-01T12:43:58;6.18;;;5.57;;
13785;SDS011;47474;48.824;9.384;2023-05-01T12:46:25;5.65;;;5.15;;
13785;SDS011;47474;48.824;9.384;2023-05-01T12:48:52;5.55;;;5.05;;
13785;SDS011;47474;48.824;9.384;2023-05-01T12:51:18;7.20;;;5.15;;
13785;SDS011;47474;48.824;9.384;2023-05-01T12:53:45;5.15;;;4.53;;
13785;SDS011;47474;48.824;9.384;2023-05-01T12:56:20;4.80;;;4.40;;
13785;SDS011;47474;48.824;9.384;2023-05-01T12:58:48;5.85;;;4.18;;
13785;SDS011;47474;48.824;9.384;2023-05-01T13:01:22;5.82;;;5.22;;
13785;SDS011;47474;48.824;9.384;2023-05-01T13:03:49;6.38;;;5.13;;
13785;SDS011;47474;48.824;9.384;2023-05-01T13:06:16;5.65;;;5.15;;
13785;SDS011;47474;48.824;9.384;2023-05-01T13:08:42;4.53;;;4.13;;
13785;SDS011;47474;48.824;9.384;2023-05-01T13:11:09;4.90;;;4.50;;
13785;SDS011;47474;48.824;9.384;2023-05-01T13:13:38;5.13;;;3.92;;
13785;SDS011;47474;48.824;9.384;2023-05-01T13:16:06;6.18;;;4.65;;
13785;SDS011;47474;48.824;9.384;2023-05-01T13:18:40;4.63;;;4.22;;
13785;SDS011;47474;48.824;9.384;2023-05-01T13:21:08;6.13;;;4.35;;
13785;SDS011;47474;48.824;9.384;2023-05-01T13:23:36;4.70;;;4.30;;
13785;SDS011;47474;48.824;9.384;2023-05-01T13:26:03;4.25;;;3.85;;
13785;SDS011;47474;48.824;9.384;2023-05-01T13:28:31;5.10;;;4.70;;
13785;SDS011;47474;48.824;9.384;2023-05-01T13:30:59;5.75;;;5.25;;
13785;SDS011;47474;48.824;9.384;2023-05-01T13:33:26;5.40;;;4.88;;
13785;SDS011;47474;48.824;9.384;2023-05-01T13:35:56;4.80;;;4.40;;
13785;SDS011;47474;48.824;9.384;2023-05-01T13:38:23;7.00;;;5.18;;
13785;SDS011;47474;48.824;9.384;2023-05-01T13:40:49;5.25;;;4.75;;
13785;SDS011;47474;48.824;9.384;2023-05-01T13:43:16;5.07;;;4.57;;
13785;SDS011;47474;48.824;9.384;2023-05-01T13:45:45;5.53;;;4.68;;
13785;SDS011;47474;48.824;9.384;2023-05-01T13:48:13;5.15;;;4.63;;
13785;SDS011;47474;48.824;9.384;2023-05-01T13:50:41;5.30;;;4.80;;
13785;SDS011;47474;48.824;9.384;2023-05-01T13:53:08;5.85;;;5.25;;
13785;SDS011;47474;48.824;9.384;2023-05-01T13:55:36;5.28;;;4.78;;
13785;SDS011;47474;48.824;9.384;2023-05-01T13:58:04;4.68;;;4.25;;
13785;SDS011;47474;48.824;9.384;2023-05-01T14:00:31;5.13;;;4.65;;
13785;SDS011;47474;48.824;9.384;2023-05-01T14:02:58;5.30;;;4.80;;
13785;SDS011;47474;48.824;9.384;2023-05-01T14:05:26;7.70;;;5.28;;
13785;SDS011;47474;48.824;9.384;2023-05-01T14:07:53;6.18;;;5.10;;
13785;SDS011;47474;48.824;9.384;2023-05-01T14:10:22;6.63;;;5.43;;
13785;SDS011;47474;48.824;9.384;2023-05-01T14:12:49;5.90;;;5.25;;
13785;SDS011;47474;48.824;9.384;2023-05-01T14:15:15;7.13;;;5.82;;
13785;SDS011;47474;48.824;9.384;2023-05-01T14:17:42;5.53;;;5.03;;
13785;SDS011;47474;48.824;9.384;2023-05-01T14:20:09;5.35;;;4.85;;
13785;SDS011;47474;48.824;9.384;2023-05-01T14:22:41;6.35;;;5.47;;
13785;SDS011;47474;48.824;9.384;2023-05-01T14:25:15;6.35;;;4.90;;
13785;SDS011;47474;48.824;9.384;2023-05-01T14:27:52;6.03;;;5.22;;
13785;SDS011;47474;48.824;9.384;2023-05-01T14:30:24;6.07;;;5.45;;
13785;SDS011;47474;48.824;9.384;2023-05-01T14:32:52;7.28;;;5.53;;
13785;SDS011;47474;48.824;9.384;2023-05-01T14:35:19;6.43;;;5.32;;
13785;SDS011;47474;48.824;9.384;2023-05-01T14:37:48;6.03;;;5.43;;
13785;SDS011;47474;48.824;9.384;2023-05-01T14:40:15;5.80;;;5.25;;
13785;SDS011;47474;48.824;9.384;2023-05-01T14:42:42;5.75;;;4.68;;
13785;SDS011;47474;48.824;9.384;2023-05-01T14:45:10;6.25;;;5.63;;
13785;SDS011;47474;48.824;9.384;2023-05-01T14:47:37;6.43;;;5.25;;
13785;SDS011;47474;48.824;9.384;2023-05-01T14:50:05;6.18;;;4.72;;
13785;SDS011;47474;48.824;9.384;2023-05-01T14:52:32;7.63;;;5.45;;
13785;SDS011;47474;48.824;9.384;2023-05-01T14:55:02;5.82;;;5.32;;
13785;SDS011;47474;48.824;9.384;2023-05-01T14:57:30;5.30;;;4.80;;
13785;SDS011;47474;48.824;9.384;2023-05-01T14:59:56;5.80;;;5.18;;
13785;SDS011;47474;48.824;9.384;2023-05-01T15:02:23;5.65;;;5.15;;
13785;SDS011;47474;48.824;9.384;2023-05-01T15:04:49;5.30;;;4.80;;
13785;SDS011;47474;48.824;9.384;2023-05-01T15:07:16;5.88;;;5.38;;
13785;SDS011;47474;48.824;9.384;2023-05-01T15:09:42;5.15;;;4.70;;
13785;SDS011;47474;48.824;9.384;2023-05-01T15:12:11;6.22;;;5.63;;
13785;SDS011;47474;48.824;9.384;2023-05-01T15:14:38;5.57;;;4.95;;
13785;SDS011;47474;48.824;9.384;2023-05-01T15:17:04;5.47;;;4.97;;
13785;SDS011;47474;48.824;9.384;2023-05-01T15:19:31;6.38;;;4.78;;
13785;SDS011;47474;48.824;9.384;2023-05-01T15:21:57;5.63;;;5.03;;
13785;SDS011;47474;48.824;9.384;2023-05-01T15:24:26;5.18;;;4.70;;
13785;SDS011;47474;48.824;9.384;2023-05-01T15:26:53;5.47;;;4.97;;